createdAt,value
2018-06-25T00:01:13.512Z,95.31
2018-06-25T00:04:17.951Z,95.28
2018-06-25T00:07:22.286Z,95.07
2018-06-25T00:10:26.609Z,95.27
2018-06-25T00:13:30.938Z,95.43
2018-06-25T00:16:35.354Z,95.32
2018-06-25T00:19:39.685Z,95.56
2018-06-25T00:22:44.080Z,95.25
2018-06-25T00:25:48.416Z,95.52
2018-06-25T00:28:52.761Z,95.38
2018-06-25T00:31:57.076Z,95.49
2018-06-25T00:35:01.379Z,95.41
2018-06-25T00:38:05.821Z,95.47
2018-06-25T00:41:10.138Z,95.50
2018-06-25T00:44:14.417Z,95.88
2018-06-25T00:47:18.749Z,95.51
2018-06-25T00:50:23.096Z,96.19
2018-06-25T00:53:27.429Z,96.07
2018-06-25T00:56:31.689Z,95.91
2018-06-25T00:59:52.386Z,95.85
2018-06-25T01:02:56.767Z,95.76
2018-06-25T01:06:01.124Z,95.29
2018-06-25T01:09:09.231Z,95.61
2018-06-25T01:12:14.055Z,96.12
2018-06-25T01:15:18.413Z,96.22
2018-06-25T01:18:22.684Z,96.25
2018-06-25T01:21:26.956Z,96.11
2018-06-25T01:24:31.304Z,96.14
2018-06-25T01:27:35.589Z,96.40
2018-06-25T01:30:39.893Z,96.13
2018-06-25T01:33:44.381Z,96.19
2018-06-25T01:36:49.320Z,96.39
2018-06-25T01:39:53.644Z,96.13
2018-06-25T01:42:57.877Z,96.68
2018-06-25T01:46:02.287Z,96.44
2018-06-25T01:49:06.591Z,96.91
2018-06-25T01:52:10.897Z,96.96
2018-06-25T01:55:15.242Z,96.53
2018-06-25T01:58:19.544Z,96.63
2018-06-25T02:01:23.904Z,96.59
2018-06-25T02:04:28.219Z,96.82
2018-06-25T02:07:32.524Z,96.63
2018-06-25T02:10:36.868Z,96.81
2018-06-25T02:13:41.230Z,96.79
2018-06-25T02:16:45.861Z,96.54
2018-06-25T02:19:50.237Z,96.56
2018-06-25T02:22:54.553Z,96.89
2018-06-25T02:25:58.940Z,96.58
2018-06-25T02:29:03.309Z,96.68
2018-06-25T02:32:07.637Z,96.65
2018-06-25T02:35:12.862Z,96.59
2018-06-25T02:38:17.195Z,96.86
2018-06-25T02:41:21.747Z,96.59
2018-06-25T02:44:26.150Z,96.55
2018-06-25T02:47:30.403Z,96.50
2018-06-25T02:50:34.778Z,96.33
2018-06-25T02:53:39.095Z,96.64
2018-06-25T02:56:43.445Z,96.35
2018-06-25T02:59:47.854Z,96.42
2018-06-25T03:02:52.145Z,96.09
2018-06-25T03:05:56.493Z,95.93
2018-06-25T03:09:00.950Z,96.32
2018-06-25T03:12:05.341Z,95.99
2018-06-25T03:15:10.471Z,96.11
2018-06-25T03:18:14.809Z,96.42
2018-06-25T03:21:19.091Z,96.33
2018-06-25T03:24:23.420Z,95.90
2018-06-25T03:27:27.689Z,95.26
2018-06-25T03:30:32.069Z,95.43
2018-06-25T03:33:36.396Z,95.89
2018-06-25T03:36:40.771Z,95.48
2018-06-25T03:39:45.027Z,95.12
2018-06-25T03:42:49.351Z,94.33
2018-06-25T03:45:53.717Z,94.45
2018-06-25T03:48:58.004Z,94.48
2018-06-25T03:52:02.341Z,94.43
2018-06-25T03:55:06.939Z,93.96
2018-06-25T03:58:11.276Z,93.58
2018-06-25T04:01:15.601Z,93.57
2018-06-25T04:04:20.018Z,93.46
2018-06-25T04:07:24.361Z,93.44
2018-06-25T04:10:28.621Z,93.36
2018-06-25T04:13:32.978Z,92.84
2018-06-25T04:16:37.542Z,92.77
2018-06-25T04:19:41.813Z,92.46
2018-06-25T04:22:46.171Z,92.79
2018-06-25T04:25:50.493Z,92.55
2018-06-25T04:28:54.833Z,92.74
2018-06-25T04:31:59.239Z,92.20
2018-06-25T04:35:03.504Z,92.43
2018-06-25T04:38:07.848Z,92.15
2018-06-25T04:41:12.226Z,91.73
2018-06-25T04:44:16.505Z,91.97
2018-06-25T04:47:20.838Z,92.25
2018-06-25T04:50:25.325Z,92.00
2018-06-25T04:53:29.670Z,91.73
2018-06-25T04:56:34.114Z,92.03
2018-06-25T04:59:38.371Z,91.80
2018-06-25T05:02:42.720Z,92.27
2018-06-25T05:05:47.185Z,91.47
2018-06-25T05:08:51.481Z,91.10
2018-06-25T05:11:55.801Z,91.10
2018-06-25T05:15:00.205Z,90.79
2018-06-25T05:18:04.783Z,91.41
2018-06-25T05:21:09.073Z,90.38
2018-06-25T05:24:13.393Z,90.63
2018-06-25T05:27:17.653Z,90.19
2018-06-25T05:30:22.067Z,90.66
2018-06-25T05:33:26.448Z,90.21
2018-06-25T05:36:30.812Z,89.75
2018-06-25T05:39:35.137Z,89.87
2018-06-25T05:42:39.406Z,90.00
2018-06-25T05:45:43.776Z,89.44
2018-06-25T05:48:48.115Z,89.45
2018-06-25T05:51:52.419Z,89.96
2018-06-25T05:54:56.713Z,89.30
2018-06-25T05:58:01.069Z,88.92
2018-06-25T06:01:05.477Z,88.46
2018-06-25T06:04:09.758Z,88.38
2018-06-25T06:07:14.129Z,87.67
2018-06-25T06:10:18.412Z,88.31
2018-06-25T06:13:22.745Z,87.88
2018-06-25T06:16:27.096Z,87.56
2018-06-25T06:19:31.386Z,87.34
2018-06-25T06:22:35.759Z,87.57
2018-06-25T06:25:40.174Z,86.97
2018-06-25T06:28:44.485Z,86.96
2018-06-25T06:31:48.809Z,86.53
2018-06-25T06:34:53.104Z,86.87
2018-06-25T06:37:57.420Z,86.37
2018-06-25T06:41:01.761Z,86.59
2018-06-25T06:44:06.292Z,86.60
2018-06-25T06:47:10.639Z,87.18
2018-06-25T06:50:15.102Z,86.77
2018-06-25T06:53:19.461Z,85.30
2018-06-25T06:56:23.890Z,86.35
2018-06-25T06:59:28.198Z,85.76
2018-06-25T07:02:32.360Z,85.89
2018-06-25T07:05:36.725Z,85.15
2018-06-25T07:08:41.065Z,83.85
2018-06-25T07:11:45.346Z,84.39
2018-06-25T07:14:49.582Z,83.74
2018-06-25T07:17:53.924Z,82.89
2018-06-25T07:20:58.181Z,83.53
2018-06-25T07:24:02.532Z,84.37
2018-06-25T07:27:06.904Z,84.10
2018-06-25T07:30:11.217Z,83.98
2018-06-25T07:33:15.545Z,83.70
2018-06-25T07:36:19.799Z,83.71
2018-06-25T07:39:24.157Z,84.25
2018-06-25T07:42:28.510Z,83.55
2018-06-25T07:45:32.777Z,82.68
2018-06-25T07:48:37.146Z,82.66
2018-06-25T07:51:41.478Z,82.12
2018-06-25T07:54:45.904Z,81.81
2018-06-25T07:57:50.237Z,81.08
2018-06-25T08:00:54.605Z,80.73
2018-06-25T08:03:58.954Z,81.11
2018-06-25T08:07:03.296Z,79.70
2018-06-25T08:10:07.707Z,79.62
2018-06-25T08:13:12.034Z,79.24
2018-06-25T08:16:16.447Z,78.56
2018-06-25T08:19:20.779Z,77.99
2018-06-25T08:22:25.074Z,77.26
2018-06-25T08:25:29.427Z,75.57
2018-06-25T08:28:33.752Z,75.43
2018-06-25T08:31:38.060Z,75.36
2018-06-25T08:34:42.373Z,75.30
2018-06-25T08:37:46.854Z,74.38
2018-06-25T08:40:51.239Z,73.92
2018-06-25T08:43:55.556Z,74.12
2018-06-25T08:46:59.858Z,73.12
2018-06-25T08:50:04.242Z,73.35
2018-06-25T08:53:08.841Z,74.22
2018-06-25T08:56:13.128Z,74.75
2018-06-25T08:59:17.479Z,74.48
2018-06-25T09:02:21.840Z,72.57
2018-06-25T09:05:26.071Z,72.25
2018-06-25T09:08:30.401Z,72.69
2018-06-25T09:11:34.724Z,73.83
2018-06-25T09:14:39.085Z,71.08
2018-06-25T09:17:43.415Z,71.56
2018-06-25T09:20:47.660Z,73.33
2018-06-25T09:23:52.058Z,72.19
2018-06-25T09:26:56.366Z,72.28
2018-06-25T09:30:00.774Z,73.17
2018-06-25T09:33:05.201Z,73.27
2018-06-25T09:36:09.670Z,73.68
2018-06-25T09:39:13.983Z,73.86
2018-06-25T09:42:18.351Z,72.82
2018-06-25T09:45:22.785Z,72.99
2018-06-25T09:48:27.083Z,72.54
2018-06-25T09:51:31.673Z,71.29
2018-06-25T09:54:36.031Z,72.36
2018-06-25T09:57:41.431Z,71.43
2018-06-25T10:00:51.311Z,69.30
2018-06-25T10:03:55.953Z,70.49
2018-06-25T10:07:00.809Z,70.27
2018-06-25T10:10:05.291Z,70.79
2018-06-25T10:13:09.789Z,70.07
2018-06-25T10:16:14.208Z,71.45
2018-06-25T10:19:18.722Z,70.36
2018-06-25T10:22:23.018Z,72.52
2018-06-25T10:25:27.401Z,72.77
2018-06-25T10:28:31.739Z,72.71
2018-06-25T10:31:36.052Z,73.05
2018-06-25T10:34:40.429Z,73.25
2018-06-25T10:37:44.649Z,72.98
2018-06-25T10:40:48.973Z,73.78
2018-06-25T10:43:53.330Z,73.83
2018-06-25T10:46:57.584Z,72.92
2018-06-25T10:50:01.921Z,72.87
2018-06-25T10:53:06.254Z,72.74
2018-06-25T10:56:10.694Z,72.54
2018-06-25T10:59:15.094Z,72.72
2018-06-25T11:02:19.430Z,73.65
2018-06-25T11:05:23.741Z,73.65
2018-06-25T11:08:28.198Z,74.31
2018-06-25T11:11:32.576Z,72.91
2018-06-25T11:14:36.906Z,72.98
2018-06-25T11:17:41.251Z,73.47
2018-06-25T11:20:45.529Z,72.41
2018-06-25T11:23:49.635Z,72.91
2018-06-25T11:26:54.121Z,73.36
2018-06-25T11:29:58.398Z,73.96
2018-06-25T11:33:02.687Z,72.84
2018-06-25T11:36:06.998Z,73.74
2018-06-25T11:39:12.494Z,72.77
2018-06-25T11:42:16.810Z,72.65
2018-06-25T11:45:21.154Z,73.08
2018-06-25T11:48:25.461Z,73.96
2018-06-25T11:51:29.770Z,73.64
2018-06-25T11:54:34.104Z,74.49
2018-06-25T11:57:38.360Z,73.68
2018-06-25T12:00:42.771Z,74.42
2018-06-25T12:03:47.082Z,75.33
2018-06-25T12:06:51.383Z,75.10
2018-06-25T12:09:55.677Z,75.27
2018-06-25T12:12:59.946Z,74.97
2018-06-25T12:16:04.279Z,76.34
2018-06-25T12:19:08.770Z,75.59
2018-06-25T12:22:13.064Z,75.59
2018-06-25T12:25:17.386Z,74.50
2018-06-25T12:28:21.685Z,74.83
2018-06-25T12:31:25.967Z,75.05
2018-06-25T12:34:30.289Z,74.35
2018-06-25T12:37:34.596Z,74.23
2018-06-25T12:40:38.938Z,74.14
2018-06-25T12:43:43.351Z,74.26
2018-06-25T12:46:47.675Z,74.90
2018-06-25T12:49:51.986Z,74.61
2018-06-25T12:52:56.275Z,74.95
2018-06-25T12:56:00.661Z,75.42
2018-06-25T12:59:05.038Z,74.82
2018-06-25T13:02:09.441Z,75.76
2018-06-25T13:05:13.807Z,76.13
2018-06-25T13:08:18.217Z,75.80
2018-06-25T13:11:22.590Z,77.11
2018-06-25T13:14:26.962Z,77.54
2018-06-25T13:17:31.401Z,77.42
2018-06-25T13:20:35.738Z,75.72
2018-06-25T13:23:40.160Z,75.69
2018-06-25T13:26:44.555Z,75.00
2018-06-25T13:29:48.922Z,75.04
2018-06-25T13:32:53.347Z,74.61
2018-06-25T13:35:57.713Z,73.99
2018-06-25T13:39:02.129Z,73.96
2018-06-25T13:42:06.715Z,75.69
2018-06-25T13:45:11.056Z,76.02
2018-06-25T13:48:15.517Z,76.15
2018-06-25T13:51:19.867Z,76.80
2018-06-25T13:54:24.269Z,75.49
2018-06-25T13:57:28.674Z,75.19
2018-06-25T14:00:33.182Z,75.35
2018-06-25T14:03:37.497Z,73.91
2018-06-25T14:06:41.956Z,73.55
2018-06-25T14:09:46.247Z,72.45
2018-06-25T14:12:50.561Z,72.53
2018-06-25T14:15:54.960Z,73.10
2018-06-25T14:18:59.263Z,72.50
2018-06-25T14:22:03.737Z,72.69
2018-06-25T14:25:08.059Z,73.75
2018-06-25T14:28:17.717Z,72.85
2018-06-25T14:31:22.987Z,72.49
2018-06-25T14:34:27.381Z,72.11
2018-06-25T14:37:31.658Z,73.15
2018-06-25T14:40:36.006Z,72.45
2018-06-25T14:43:40.369Z,73.28
2018-06-25T14:46:44.667Z,72.81
2018-06-25T14:49:49.031Z,72.69
2018-06-25T14:53:13.600Z,72.14
2018-06-25T14:56:17.890Z,73.01
2018-06-25T14:59:22.256Z,72.44
2018-06-25T15:02:26.586Z,72.46
2018-06-25T15:05:30.933Z,73.53
2018-06-25T15:08:35.193Z,71.50
2018-06-25T15:11:39.562Z,71.44
2018-06-25T15:14:43.898Z,71.36
2018-06-25T15:17:48.382Z,70.32
2018-06-25T15:20:52.815Z,69.62
2018-06-25T15:23:57.103Z,70.06
2018-06-25T15:27:01.404Z,67.59
2018-06-25T15:30:05.877Z,66.32
2018-06-25T15:33:10.203Z,66.43
2018-06-25T15:36:14.509Z,65.57
2018-06-25T15:39:19.034Z,67.69
2018-06-25T15:42:23.353Z,67.28
2018-06-25T15:45:27.690Z,67.14
2018-06-25T15:48:31.981Z,67.52
2018-06-25T15:51:36.322Z,69.00
2018-06-25T15:54:40.598Z,69.64
2018-06-25T15:57:44.910Z,70.51
2018-06-25T16:00:49.387Z,67.28
2018-06-25T16:03:53.772Z,69.53
2018-06-25T16:06:58.125Z,71.00
2018-06-25T16:10:02.902Z,71.76
2018-06-25T16:13:07.527Z,73.14
2018-06-25T16:16:11.889Z,72.93
2018-06-25T16:19:16.226Z,69.13
2018-06-25T16:22:20.534Z,67.95
2018-06-25T16:25:24.837Z,67.28
2018-06-25T16:28:29.123Z,65.77
2018-06-25T16:31:33.504Z,68.21
2018-06-25T16:34:37.759Z,71.63
2018-06-25T16:37:42.212Z,74.25
2018-06-25T16:40:46.990Z,75.92
2018-06-25T16:43:51.432Z,76.48
2018-06-25T16:46:55.746Z,73.32
2018-06-25T16:50:00.106Z,70.32
2018-06-25T16:53:04.405Z,68.56
2018-06-25T16:56:08.748Z,67.05
2018-06-25T16:59:13.198Z,65.73
2018-06-25T17:02:17.473Z,65.10
2018-06-25T17:05:21.848Z,63.49
2018-06-25T17:08:26.214Z,63.48
2018-06-25T17:11:30.544Z,61.64
2018-06-25T17:14:34.822Z,65.29
2018-06-25T17:17:39.184Z,69.06
2018-06-25T17:20:44.103Z,72.09
2018-06-25T17:23:48.535Z,73.93
2018-06-25T17:26:52.822Z,76.66
2018-06-25T17:29:57.166Z,78.00
2018-06-25T17:33:01.479Z,78.80
2018-06-25T17:36:06.071Z,77.31
2018-06-25T17:39:10.412Z,77.83
2018-06-25T17:42:14.762Z,78.06
2018-06-25T17:45:19.164Z,78.16
2018-06-25T17:48:23.538Z,78.64
2018-06-25T17:51:27.845Z,79.44
2018-06-25T17:54:32.171Z,79.82
2018-06-25T17:57:36.521Z,80.17
2018-06-25T18:00:40.866Z,80.26
2018-06-25T18:03:45.292Z,81.46
2018-06-25T18:06:49.700Z,81.13
2018-06-25T18:09:54.064Z,81.55
2018-06-25T18:12:58.485Z,81.59
2018-06-25T18:16:02.858Z,81.62
2018-06-25T18:19:07.294Z,82.04
2018-06-25T18:22:11.726Z,81.94
2018-06-25T18:25:16.061Z,82.76
2018-06-25T18:28:20.509Z,82.28
2018-06-25T18:31:24.769Z,82.00
2018-06-25T18:34:29.157Z,82.92
2018-06-25T18:37:33.654Z,82.88
2018-06-25T18:40:37.972Z,83.56
2018-06-25T18:43:42.421Z,83.07
2018-06-25T18:46:46.818Z,84.30
2018-06-25T18:49:51.147Z,83.97
2018-06-25T18:52:55.485Z,84.03
2018-06-25T18:55:59.888Z,84.81
2018-06-25T18:59:04.308Z,84.70
2018-06-25T19:02:08.747Z,84.93
2018-06-25T19:05:13.139Z,84.57
2018-06-25T19:08:17.484Z,85.04
2018-06-25T19:11:21.929Z,85.44
2018-06-25T19:14:26.592Z,85.83
2018-06-25T19:17:30.980Z,86.51
2018-06-25T19:20:36.702Z,86.81
2018-06-25T19:23:41.184Z,86.38
2018-06-25T19:26:45.537Z,87.05
2018-06-25T19:29:49.915Z,87.24
2018-06-25T19:32:54.233Z,86.56
2018-06-25T19:35:58.546Z,86.67
2018-06-25T19:39:02.870Z,86.84
2018-06-25T19:42:07.231Z,87.27
2018-06-25T19:45:11.741Z,86.60
2018-06-25T19:48:16.109Z,87.07
2018-06-25T19:51:20.448Z,86.85
2018-06-25T19:54:24.870Z,87.67
2018-06-25T19:57:29.197Z,87.53
2018-06-25T20:00:33.463Z,87.46
2018-06-25T20:03:37.789Z,87.77
2018-06-25T20:06:42.146Z,88.01
2018-06-25T20:09:46.565Z,87.79
2018-06-25T20:12:51.005Z,88.71
2018-06-25T20:15:55.297Z,88.64
2018-06-25T20:18:59.621Z,88.33
2018-06-25T20:22:04.129Z,88.71
2018-06-25T20:25:09.772Z,88.72
2018-06-25T20:28:14.110Z,89.60
2018-06-25T20:31:18.401Z,90.23
2018-06-25T20:34:23.148Z,90.23
2018-06-25T20:37:27.445Z,90.86
2018-06-25T20:40:31.771Z,90.22
2018-06-25T20:43:36.072Z,90.29
2018-06-25T20:46:40.608Z,90.49
2018-06-25T20:49:45.135Z,90.35
2018-06-25T20:52:49.518Z,90.56
2018-06-25T20:55:54.082Z,90.79
2018-06-25T20:58:58.520Z,90.66
2018-06-25T21:02:03.121Z,90.28
2018-06-25T21:05:07.477Z,90.63
2018-06-25T21:08:12.047Z,91.21
2018-06-25T21:11:16.578Z,91.27
2018-06-25T21:14:21.105Z,91.13
2018-06-25T21:17:25.520Z,91.41
2018-06-25T21:20:30.071Z,91.51
2018-06-25T21:23:34.590Z,91.76
2018-06-25T21:26:38.927Z,91.00
2018-06-25T21:29:43.388Z,90.63
2018-06-25T21:32:47.720Z,91.24
2018-06-25T21:35:52.154Z,90.29
2018-06-25T21:38:56.457Z,90.76
2018-06-25T21:42:00.844Z,91.53
2018-06-25T21:45:05.314Z,91.65
2018-06-25T21:48:09.752Z,91.56
2018-06-25T21:51:14.063Z,91.95
2018-06-25T21:54:18.423Z,92.32
2018-06-25T21:57:23.159Z,91.75
2018-06-25T22:00:43.148Z,91.37
2018-06-25T22:03:47.654Z,91.31
2018-06-25T22:06:52.240Z,91.26
2018-06-25T22:09:56.944Z,91.16
2018-06-25T22:13:01.224Z,91.01
2018-06-25T22:16:05.923Z,91.12
2018-06-25T22:19:10.318Z,90.83
2018-06-25T22:22:14.577Z,90.69
2018-06-25T22:25:18.889Z,90.54
2018-06-25T22:28:23.157Z,91.01
2018-06-25T22:31:27.593Z,91.41
2018-06-25T22:34:31.888Z,91.18
2018-06-25T22:37:36.164Z,91.86
2018-06-25T22:40:40.586Z,91.60
2018-06-25T22:43:44.889Z,91.54
2018-06-25T22:46:49.152Z,92.05
2018-06-25T22:49:53.473Z,91.96
2018-06-25T22:52:57.869Z,92.47
2018-06-25T22:56:02.193Z,91.60
2018-06-25T22:59:06.988Z,92.17
2018-06-25T23:02:11.273Z,91.90
2018-06-25T23:05:15.649Z,92.01
2018-06-25T23:08:20.004Z,92.19
2018-06-25T23:11:24.312Z,92.00
2018-06-25T23:14:28.653Z,92.29
2018-06-25T23:17:33.045Z,91.95
2018-06-25T23:20:37.396Z,92.64
2018-06-25T23:23:42.270Z,92.59
2018-06-25T23:26:46.712Z,92.99
2018-06-25T23:29:50.984Z,92.77
2018-06-25T23:32:55.384Z,93.09
2018-06-25T23:36:00.507Z,93.18
2018-06-25T23:39:07.909Z,93.60
2018-06-25T23:42:12.248Z,93.23
2018-06-25T23:45:16.582Z,93.67
2018-06-25T23:48:20.875Z,93.54
2018-06-25T23:51:25.192Z,92.88
2018-06-25T23:54:29.457Z,93.48
2018-06-25T23:57:33.752Z,93.35
